Time;durP1;ratioP1;P1;durP2;ratioP2;P2;SDS_P1;SDS_P2;PMS_P1;PMS_P2;Temp;Humidity;BMP_temperature;BMP_pressure;BME280_temperature;BME280_humidity;BME280_pressure;Samples;Min_cycle;Max_cycle;Signal;HPM_P1;HPM_P2
2024/01/03 00:00:21;;;;;;;2.30;1.15;;;;;;;7.91;100.00;98284.28;5019129;28;20632;-80
2024/01/03 00:02:47;;;;;;;3.25;1.10;;;;;;;8.00;100.00;98276.31;5024343;28;20043;-79
2024/01/03 00:05:14;;;;;;;5.07;1.30;;;;;;;8.05;100.00;98273.47;5032521;28;20041;-80
2024/01/03 00:07:41;;;;;;;2.72;1.08;;;;;;;8.16;100.00;98274.75;5018982;28;20068;-78
2024/01/03 00:10:49;;;;;;;2.65;0.80;;;;;;;8.20;100.00;98270.38;5031597;28;20037;-76
2024/01/03 00:13:30;;;;;;;3.17;0.90;;;;;;;8.25;100.00;98259.53;4913050;28;20035;-78
2024/01/03 00:15:58;;;;;;;2.85;0.85;;;;;;;8.33;100.00;98258.75;4946178;28;20046;-78
2024/01/03 00:18:36;;;;;;;3.97;0.80;;;;;;;8.36;100.00;98263.47;4964268;28;20076;-78
2024/01/03 00:21:07;;;;;;;4.70;0.98;;;;;;;8.40;100.00;98259.09;5026208;28;20029;-80
2024/01/03 00:23:37;;;;;;;5.72;1.13;;;;;;;8.43;100.00;98255.00;5027471;28;20031;-82
2024/01/03 00:26:04;;;;;;;6.20;1.00;;;;;;;8.44;100.00;98249.34;5034876;28;20037;-80
2024/01/03 00:28:30;;;;;;;4.50;1.17;;;;;;;8.43;100.00;98258.44;5025115;28;20037;-81
2024/01/03 00:30:56;;;;;;;6.07;0.98;;;;;;;8.43;100.00;98247.78;5015602;28;20862;-79
2024/01/03 00:33:21;;;;;;;4.47;1.05;;;;;;;8.47;100.00;98254.06;5026366;28;20041;-79
2024/01/03 00:35:47;;;;;;;7.68;1.10;;;;;;;8.51;100.00;98248.09;5030679;28;20034;-78
2024/01/03 00:38:13;;;;;;;3.92;1.00;;;;;;;8.51;100.00;98243.53;5038627;28;20116;-80
2024/01/03 00:40:52;;;;;;;2.67;0.90;;;;;;;8.50;100.00;98243.84;5031247;28;20075;-80
2024/01/03 00:43:18;;;;;;;2.72;0.75;;;;;;;8.48;100.00;98234.28;5019351;28;20056;-81
2024/01/03 00:45:44;;;;;;;4.70;0.93;;;;;;;8.48;100.00;98249.50;5035953;28;20041;-81
2024/01/03 00:48:10;;;;;;;6.80;1.00;;;;;;;8.46;100.00;98247.13;5019745;28;20451;-81
2024/01/03 00:50:36;;;;;;;4.95;1.08;;;;;;;8.45;100.00;98247.47;5042360;28;20530;-82
2024/01/03 00:53:02;;;;;;;4.82;1.40;;;;;;;8.47;100.00;98250.63;5034880;28;20140;-80
2024/01/03 00:55:28;;;;;;;5.28;1.17;;;;;;;8.45;100.00;98248.25;5020525;28;20525;-81
2024/01/03 00:57:55;;;;;;;5.43;1.08;;;;;;;8.47;100.00;98238.06;5016556;28;20043;-82
2024/01/03 01:00:21;;;;;;;6.97;1.00;;;;;;;8.46;100.00;98238.34;5004046;28;20045;-74
2024/01/03 01:02:48;;;;;;;3.20;0.80;;;;;;;8.46;100.00;98247.13;5000866;28;20032;-77
2024/01/03 01:05:14;;;;;;;5.15;1.15;;;;;;;8.45;100.00;98240.25;5018615;28;20041;-79
2024/01/03 01:07:40;;;;;;;;;;;;;;;8.44;100.00;98244.00;5031198;28;20589;-80
2024/01/03 01:10:06;;;;;;;3.33;1.15;;;;;;;8.43;100.00;98247.00;5032868;28;20322;-77
2024/01/03 01:12:34;;;;;;;6.30;1.25;;;;;;;8.44;100.00;98244.00;5036626;28;20040;-80
2024/01/03 01:15:00;;;;;;;6.55;1.15;;;;;;;8.45;100.00;98244.78;5029229;28;20056;-80
2024/01/03 01:17:27;;;;;;;7.85;1.08;;;;;;;8.45;100.00;98239.47;5012112;28;20033;-79
2024/01/03 01:19:53;;;;;;;3.92;1.08;;;;;;;8.45;100.00;98239.47;5029915;28;20454;-79
2024/01/03 01:22:19;;;;;;;3.83;0.90;;;;;;;8.47;100.00;98243.41;5014205;28;20045;-81
2024/01/03 01:24:45;;;;;;;5.03;1.20;;;;;;;8.47;100.00;98248.72;5024152;28;20041;-75
2024/01/03 01:27:11;;;;;;;5.38;1.00;;;;;;;8.47;100.00;98238.06;5029332;28;20038;-78
2024/01/03 01:29:37;;;;;;;3.42;1.00;;;;;;;8.47;100.00;98222.06;4999958;28;20052;-78
2024/01/03 01:32:03;;;;;;;4.90;1.10;;;;;;;8.47;100.00;98243.41;5010065;28;20515;-79
2024/01/03 01:34:29;;;;;;;4.65;0.90;;;;;;;8.52;100.00;98244.31;5014261;28;20045;-80
2024/01/03 01:36:54;;;;;;;3.97;0.90;;;;;;;8.51;100.00;98240.88;5017972;28;20040;-80
2024/01/03 01:39:20;;;;;;;6.82;1.08;;;;;;;8.48;100.00;98239.63;5022602;28;20033;-75
2024/01/03 01:41:47;;;;;;;6.78;1.38;;;;;;;8.48;100.00;98244.19;5032865;28;20546;-81
2024/01/03 01:44:14;;;;;;;6.80;1.02;;;;;;;8.46;100.00;98241.81;5032845;28;20030;-81
2024/01/03 01:46:40;;;;;;;6.15;1.20;;;;;;;8.46;100.00;98236.47;5021531;28;20075;-79
2024/01/03 01:49:08;;;;;;;6.50;1.20;;;;;;;8.43;100.00;98239.78;5018029;28;20513;-79
2024/01/03 01:51:35;;;;;;;6.85;1.30;;;;;;;8.43;100.00;98237.13;5031732;28;20588;-79
2024/01/03 01:54:02;;;;;;;3.67;0.93;;;;;;;8.43;100.00;98237.13;5025514;28;20060;-79
2024/01/03 01:56:32;;;;;;;4.97;0.90;;;;;;;8.41;100.00;98247.31;5015449;28;20033;-81
2024/01/03 01:58:59;;;;;;;4.85;0.90;;;;;;;8.44;100.00;98246.69;5034799;28;20339;-78
2024/01/03 02:01:27;;;;;;;5.63;0.98;;;;;;;8.46;100.00;98247.13;5032373;28;20042;-79
2024/01/03 02:03:53;;;;;;;6.20;1.00;;;;;;;8.44;100.00;98246.69;5033009;28;20481;-79
2024/01/03 02:06:20;;;;;;;6.70;1.08;;;;;;;8.43;100.00;98247.78;5036906;28;20383;-81
2024/01/03 02:08:46;;;;;;;6.18;1.10;;;;;;;8.38;100.00;98245.28;5024607;28;20777;-80
2024/01/03 02:11:12;;;;;;;5.93;1.15;;;;;;;8.37;100.00;98243.72;5039369;28;20066;-79
2024/01/03 02:13:38;;;;;;;6.22;1.20;;;;;;;8.39;100.00;98238.84;5031948;28;20033;-78
2024/01/03 02:16:04;;;;;;;6.35;1.20;;;;;;;8.43;100.00;98223.78;5022740;28;20110;-78
2024/01/03 02:18:30;;;;;;;6.72;0.93;;;;;;;8.38;100.00;98223.94;5028239;28;20407;-80
2024/01/03 02:20:58;;;;;;;3.67;1.00;;;;;;;8.37;100.00;98227.69;5025619;28;20123;-77
2024/01/03 02:23:23;;;;;;;4.63;0.98;;;;;;;8.36;100.00;98228.03;5030101;28;20033;-76
2024/01/03 02:25:49;;;;;;;;;;;;;;;8.33;100.00;98229.41;5009468;28;20574;-78
2024/01/03 02:28:16;;;;;;;3.47;0.82;;;;;;;8.29;100.00;98228.47;5036791;28;19917;-80
2024/01/03 02:30:44;;;;;;;4.90;1.02;;;;;;;8.28;100.00;98223.47;5022076;28;20056;-77
2024/01/03 02:33:11;;;;;;;5.45;0.80;;;;;;;8.26;100.00;98230.97;5026694;28;20048;-79
2024/01/03 02:35:37;;;;;;;5.80;1.05;;;;;;;8.22;100.00;98222.84;5042559;28;20776;-78
2024/01/03 02:38:03;;;;;;;3.70;0.85;;;;;;;8.19;100.00;98234.91;5036217;28;20033;-77
2024/01/03 02:40:29;;;;;;;3.75;0.95;;;;;;;8.19;100.00;98234.13;5038504;28;20059;-77
2024/01/03 02:42:55;;;;;;;7.47;1.13;;;;;;;8.17;100.00;98236.31;5034572;28;20124;-79
2024/01/03 02:45:20;;;;;;;5.63;1.67;;;;;;;8.14;100.00;98229.75;5042117;28;20565;-78
2024/01/03 02:47:46;;;;;;;4.00;1.23;;;;;;;8.13;100.00;98230.06;5029423;28;20044;-77
2024/01/03 02:50:13;;;;;;;5.03;0.90;;;;;;;8.12;100.00;98225.81;5040184;28;20458;-78
2024/01/03 02:52:38;;;;;;;6.82;1.20;;;;;;;8.11;100.00;98224.25;5007068;28;20036;-79
2024/01/03 02:55:05;;;;;;;6.43;1.10;;;;;;;8.11;100.00;98237.56;5033726;28;20111;-76
2024/01/03 02:57:31;;;;;;;4.85;1.00;;;;;;;8.10;100.00;98234.13;5035655;28;20043;-75
2024/01/03 02:59:56;;;;;;;2.85;1.30;;;;;;;8.13;100.00;98233.50;5037689;28;20029;-74
2024/01/03 03:02:22;;;;;;;3.28;0.70;;;;;;;8.17;100.00;98233.66;5026550;28;20041;-75
2024/01/03 03:04:48;;;;;;;2.97;0.80;;;;;;;8.16;100.00;98221.41;5014932;28;20045;-77
2024/01/03 03:07:13;;;;;;;6.07;0.90;;;;;;;8.25;100.00;98230.19;5034724;28;20041;-74
2024/01/03 03:09:40;;;;;;;3.80;1.08;;;;;;;8.23;100.00;98237.72;5031763;28;20038;-75
2024/01/03 03:12:05;;;;;;;;;;;;;;;8.19;100.00;98231.44;5021501;28;20044;-75
2024/01/03 03:14:31;;;;;;;4.57;0.95;;;;;;;8.15;100.00;98246.53;5035151;28;19920;-75
2024/01/03 03:16:56;;;;;;;3.85;0.90;;;;;;;8.13;100.00;98235.41;5037924;28;20036;-74
2024/01/03 03:19:22;;;;;;;4.57;1.20;;;;;;;8.08;100.00;98243.53;5018086;28;20045;-74
2024/01/03 03:21:48;;;;;;;1.95;0.85;;;;;;;8.08;100.00;98230.22;5028224;28;20041;-74
2024/01/03 03:24:13;;;;;;;4.38;0.77;;;;;;;8.09;100.00;98242.44;5041560;28;20516;-75
2024/01/03 03:26:39;;;;;;;4.00;0.82;;;;;;;8.09;100.00;98247.78;5046974;28;20029;-75
2024/01/03 03:29:04;;;;;;;3.70;0.68;;;;;;;8.07;100.00;98233.97;5038374;28;20410;-74
2024/01/03 03:31:30;;;;;;;3.15;0.73;;;;;;;8.00;100.00;98223.00;5033000;28;20033;-74
2024/01/03 03:33:56;;;;;;;4.28;0.70;;;;;;;7.99;100.00;98216.09;5040073;28;20706;-75
2024/01/03 03:36:22;;;;;;;2.92;0.60;;;;;;;7.98;100.00;98219.84;5044154;28;20056;-74
2024/01/03 03:38:47;;;;;;;3.85;1.00;;;;;;;7.99;100.00;98221.41;5035062;28;20041;-75
2024/01/03 03:41:13;;;;;;;4.65;0.80;;;;;;;7.98;100.00;98211.84;5011330;28;20037;-75
2024/01/03 03:43:39;;;;;;;2.22;0.77;;;;;;;7.93;100.00;98218.94;5023666;28;20154;-74
2024/01/03 03:46:07;;;;;;;3.85;0.93;;;;;;;7.92;100.00;98222.69;5037244;28;20033;-74
2024/01/03 03:48:33;;;;;;;5.40;0.68;;;;;;;7.90;100.00;98208.09;5045539;28;20646;-74
2024/01/03 03:51:00;;;;;;;4.50;0.70;;;;;;;7.89;100.00;98211.84;5025259;28;20094;-74
2024/01/03 03:53:25;;;;;;;4.93;1.05;;;;;;;7.86;100.00;98226.59;5008927;28;20042;-72
2024/01/03 03:55:51;;;;;;;4.05;1.30;;;;;;;7.87;100.00;98230.84;5037640;28;20494;-73
2024/01/03 03:58:17;;;;;;;4.47;1.08;;;;;;;7.81;100.00;98226.75;5037556;28;20033;-72
2024/01/03 04:00:43;;;;;;;4.72;1.13;;;;;;;7.76;100.00;98234.88;5017533;28;20643;-75
2024/01/03 04:03:08;;;;;;;4.07;0.90;;;;;;;7.73;100.00;98240.84;5015735;28;20091;-75
2024/01/03 04:05:36;;;;;;;4.93;0.77;;;;;;;7.73;100.00;98224.88;5032470;28;20044;-73
2024/01/03 04:08:02;;;;;;;7.57;0.70;;;;;;;7.66;100.00;98217.34;5024332;28;20091;-74
2024/01/03 04:10:29;;;;;;;3.58;0.60;;;;;;;7.65;100.00;98225.63;5016336;28;20068;-75
2024/01/03 04:12:57;;;;;;;4.40;1.17;;;;;;;7.63;100.00;98217.16;5029903;28;20866;-74
2024/01/03 04:15:24;;;;;;;5.38;1.00;;;;;;;7.60;100.00;98225.78;5038785;28;20045;-76
2024/01/03 04:17:53;;;;;;;4.43;1.15;;;;;;;7.61;100.00;98230.78;5036945;28;20050;-75
2024/01/03 04:20:20;;;;;;;1.98;0.77;;;;;;;7.58;100.00;98214.63;5039040;28;20079;-75
2024/01/03 04:22:46;;;;;;;2.35;0.98;;;;;;;7.57;100.00;98208.53;5020474;28;20041;-79
2024/01/03 04:25:12;;;;;;;2.75;0.73;;;;;;;7.58;100.00;98227.94;5021004;28;20037;-78
2024/01/03 04:27:38;;;;;;;1.52;0.55;;;;;;;7.59;100.00;98230.31;5035252;28;20166;-75
2024/01/03 04:30:05;;;;;;;2.97;0.60;;;;;;;7.55;100.00;98233.91;5043089;28;20144;-74
2024/01/03 04:32:31;;;;;;;2.22;0.57;;;;;;;7.52;100.00;98219.34;5038355;28;20049;-75
2024/01/03 04:34:56;;;;;;;1.67;0.60;;;;;;;7.54;100.00;98222.47;5030177;28;20104;-76
2024/01/03 04:37:22;;;;;;;2.00;0.60;;;;;;;7.50;100.00;98207.41;5018914;28;20779;-75
2024/01/03 04:39:49;;;;;;;2.38;0.80;;;;;;;7.52;100.00;98219.34;5043469;28;20120;-77
2024/01/03 04:42:14;;;;;;;1.58;0.43;;;;;;;7.53;100.00;98214.81;5046237;28;20108;-74
2024/01/03 04:44:43;;;;;;;2.75;0.47;;;;;;;7.49;100.00;98219.97;5035312;28;20078;-73
2024/01/03 04:47:09;;;;;;;3.33;0.80;;;;;;;7.51;100.00;98222.31;5031903;28;20410;-74
2024/01/03 04:49:35;;;;;;;1.15;0.50;;;;;;;7.50;100.00;98226.84;5043949;28;20040;-73
2024/01/03 04:52:01;;;;;;;1.70;0.73;;;;;;;7.48;100.00;98218.38;5028553;28;20496;-74
2024/01/03 04:54:26;;;;;;;2.67;0.70;;;;;;;7.46;100.00;98230.47;5034504;28;20041;-75
2024/01/03 04:56:53;;;;;;;;;;;;;;;7.46;100.00;98235.78;5030770;28;20037;-74
2024/01/03 04:59:18;;;;;;;1.83;0.43;;;;;;;7.46;100.00;98243.78;5010259;28;19917;-75
2024/01/03 05:01:44;;;;;;;1.75;0.55;;;;;;;7.41;100.00;98234.03;5036627;28;20045;-75
2024/01/03 05:04:12;;;;;;;2.97;0.75;;;;;;;7.38;100.00;98224.81;5035292;28;20098;-73
2024/01/03 05:06:37;;;;;;;2.60;0.57;;;;;;;7.39;100.00;98237.00;5018004;28;20076;-75
2024/01/03 05:09:03;;;;;;;3.60;0.65;;;;;;;7.39;100.00;98226.38;5015298;28;20056;-74
2024/01/03 05:11:29;;;;;;;2.38;0.70;;;;;;;7.39;100.00;98226.38;5023719;28;20071;-76
2024/01/03 05:13:55;;;;;;;3.00;1.40;;;;;;;7.41;100.00;98231.38;5005678;28;20099;-73
2024/01/03 05:16:21;;;;;;;3.88;0.85;;;;;;;7.41;100.00;98222.59;5036998;28;20542;-73
2024/01/03 05:18:47;;;;;;;3.33;0.73;;;;;;;7.38;100.00;98208.81;5023134;28;20045;-76
2024/01/03 05:21:12;;;;;;;3.10;0.75;;;;;;;7.42;100.00;98205.53;5011751;28;20049;-73
2024/01/03 05:23:39;;;;;;;2.08;0.70;;;;;;;7.43;100.00;98188.47;5037343;28;20110;-74
2024/01/03 05:26:05;;;;;;;2.53;0.70;;;;;;;7.46;100.00;98211.81;5026750;28;20078;-75
2024/01/03 05:28:30;;;;;;;3.05;1.05;;;;;;;7.46;100.00;98233.13;5025683;28;20037;-75
2024/01/03 05:30:56;;;;;;;3.35;0.90;;;;;;;7.44;100.00;98227.31;5040091;28;20170;-76
2024/01/03 05:33:22;;;;;;;4.65;0.75;;;;;;;7.44;100.00;98227.31;5038351;28;20029;-75
2024/01/03 05:35:48;;;;;;;4.72;1.00;;;;;;;7.44;100.00;98224.63;5026137;28;20689;-74
2024/01/03 05:38:14;;;;;;;3.08;1.02;;;;;;;7.43;100.00;98228.41;5029265;28;20048;-74
2024/01/03 05:40:39;;;;;;;4.82;0.90;;;;;;;7.44;100.00;98224.63;5024979;28;20069;-76
2024/01/03 05:43:06;;;;;;;5.40;1.00;;;;;;;7.44;100.00;98227.31;5036380;28;20155;-75
2024/01/03 05:45:31;;;;;;;3.10;0.70;;;;;;;7.44;100.00;98238.72;5037602;28;20074;-73
2024/01/03 05:47:57;;;;;;;9.20;1.50;;;;;;;7.44;100.00;98235.28;5018919;28;20813;-76
2024/01/03 05:50:23;;;;;;;7.32;1.10;;;;;;;7.48;100.00;98233.59;5034071;23;20049;-74
2024/01/03 05:52:49;;;;;;;5.97;1.23;;;;;;;7.47;100.00;98237.34;5026553;28;20261;-75
2024/01/03 05:55:15;;;;;;;3.08;1.00;;;;;;;7.49;100.00;98240.47;5025383;28;20040;-75
2024/01/03 05:57:40;;;;;;;6.53;1.13;;;;;;;7.48;100.00;98247.69;5042170;28;20033;-76
2024/01/03 06:00:06;;;;;;;7.53;0.98;;;;;;;7.46;100.00;98247.22;5008668;28;20344;-75
2024/01/03 06:02:32;;;;;;;6.45;1.40;;;;;;;7.49;100.00;98251.13;4992239;28;20032;-75
2024/01/03 06:04:58;;;;;;;5.63;1.30;;;;;;;7.51;100.00;98259.59;5025818;28;20133;-74
2024/01/03 06:07:23;;;;;;;3.67;1.08;;;;;;;7.50;100.00;98250.03;5023070;28;20520;-76
2024/01/03 06:09:49;;;;;;;7.28;1.23;;;;;;;7.49;100.00;98235.94;5022273;28;20041;-76
2024/01/03 06:12:14;;;;;;;6.68;1.60;;;;;;;7.52;100.00;98245.16;5027649;28;20091;-75
2024/01/03 06:14:40;;;;;;;6.13;1.00;;;;;;;7.51;100.00;98251.59;5036542;28;20066;-76
2024/01/03 06:17:06;;;;;;;5.93;1.60;;;;;;;7.51;100.00;98260.38;5030770;28;20041;-76
2024/01/03 06:19:32;;;;;;;4.57;0.95;;;;;;;7.53;100.00;98258.19;5023314;28;20029;-78
2024/01/03 06:21:58;;;;;;;5.43;1.40;;;;;;;7.52;100.00;98259.31;5019659;28;21008;-77
2024/01/03 06:24:23;;;;;;;6.85;1.02;;;;;;;7.51;100.00;98267.56;5016873;28;20104;-76
2024/01/03 06:26:49;;;;;;;7.28;0.98;;;;;;;7.49;100.00;98278.53;5008798;28;20043;-76
2024/01/03 06:29:15;;;;;;;3.35;1.02;;;;;;;7.48;100.00;98270.88;4999666;28;20037;-76
2024/01/03 06:31:41;;;;;;;5.68;1.42;;;;;;;7.48;100.00;98270.88;4992700;28;20045;-75
2024/01/03 06:34:07;;;;;;;7.72;1.50;;;;;;;7.46;100.00;98260.53;5006364;28;20111;-75
2024/01/03 06:36:33;;;;;;;6.13;0.93;;;;;;;7.48;100.00;98278.84;5037669;28;20033;-77
2024/01/03 06:38:59;;;;;;;6.28;1.38;;;;;;;7.48;100.00;98281.53;5008444;28;20041;-75
2024/01/03 06:41:25;;;;;;;;;;;;;;;7.46;100.00;98299.69;5036246;28;20072;-74
2024/01/03 06:43:50;;;;;;;5.15;1.13;;;;;;;7.45;100.00;98293.59;5026214;28;19944;-75
2024/01/03 06:46:16;;;;;;;5.75;1.17;;;;;;;7.46;100.00;98294.38;4998493;28;20033;-76
2024/01/03 06:48:41;;;;;;;4.95;0.90;;;;;;;7.47;100.00;98290.59;5025132;28;20267;-76
2024/01/03 06:51:07;;;;;;;4.93;1.27;;;;;;;7.42;100.00;98285.41;5019069;28;20029;-76
2024/01/03 06:53:34;;;;;;;4.13;1.02;;;;;;;7.42;100.00;98282.75;5023913;28;20041;-74
2024/01/03 06:56:00;;;;;;;5.97;1.98;;;;;;;7.41;100.00;98295.28;5048121;28;20024;-75
2024/01/03 06:58:26;;;;;;;5.80;1.02;;;;;;;7.41;100.00;98305.16;5041953;28;20541;-76
2024/01/03 07:00:52;;;;;;;6.70;1.20;;;;;;;7.42;100.00;98304.06;5029614;28;20040;-76
2024/01/03 07:03:18;;;;;;;7.03;1.52;;;;;;;7.43;100.00;98301.06;4995491;28;20041;-75
2024/01/03 07:05:44;;;;;;;5.70;0.90;;;;;;;7.43;100.00;98300.28;5028620;28;20040;-76
2024/01/03 07:08:10;;;;;;;8.13;1.60;;;;;;;7.44;100.00;98312.50;5013512;28;20076;-75
2024/01/03 07:10:36;;;;;;;10.10;1.30;;;;;;;7.41;100.00;98313.94;5026071;28;20036;-74
2024/01/03 07:13:02;;;;;;;11.48;1.90;;;;;;;7.39;100.00;98313.44;5011673;28;20032;-78
2024/01/03 07:15:28;;;;;;;5.25;1.23;;;;;;;7.38;100.00;98318.00;5010506;28;20045;-75
2024/01/03 07:17:59;;;;;;;5.28;1.38;;;;;;;7.36;100.00;98328.16;5039376;28;20033;-77
2024/01/03 07:20:25;;;;;;;7.82;1.10;;;;;;;7.42;100.00;98333.34;5023855;28;20033;-76
2024/01/03 07:22:51;;;;;;;6.57;1.50;;;;;;;7.42;100.00;98330.69;5009281;28;20037;-78
2024/01/03 07:25:17;;;;;;;11.55;1.63;;;;;;;7.44;100.00;98333.81;5026974;28;20047;-75
2024/01/03 07:27:43;;;;;;;10.40;1.40;;;;;;;7.42;100.00;98336.00;5035210;28;20033;-76
2024/01/03 07:30:10;;;;;;;9.65;2.03;;;;;;;7.41;100.00;98329.91;5028694;28;20135;-76
2024/01/03 07:32:37;;;;;;;6.70;1.08;;;;;;;7.42;100.00;98331.47;5036017;28;20120;-75
2024/01/03 07:35:02;;;;;;;9.40;1.73;;;;;;;7.36;100.00;98333.47;5044775;28;20079;-74
2024/01/03 07:37:28;;;;;;;6.57;1.17;;;;;;;7.33;100.00;98334.09;5029222;28;20037;-77
2024/01/03 07:39:54;;;;;;;9.45;1.55;;;;;;;7.32;100.00;98316.56;5029580;28;20075;-76
2024/01/03 07:42:20;;;;;;;7.05;1.30;;;;;;;7.37;100.00;98334.25;4991806;28;20489;-78
2024/01/03 07:44:45;;;;;;;4.97;1.35;;;;;;;7.34;100.00;98318.91;5022170;28;20132;-75
2024/01/03 07:47:11;;;;;;;9.57;1.48;;;;;;;7.36;100.00;98322.03;5040094;28;20048;-75
2024/01/03 07:49:38;;;;;;;3.85;1.08;;;;;;;7.42;100.00;98334.13;5028211;28;20057;-75
2024/01/03 07:52:04;;;;;;;6.70;1.20;;;;;;;7.41;100.00;98326.44;5043424;28;20133;-75
2024/01/03 07:54:30;;;;;;;6.85;1.23;;;;;;;7.39;100.00;98322.22;5041173;28;20127;-76
2024/01/03 07:56:57;;;;;;;7.60;1.33;;;;;;;7.43;100.00;98326.94;5008285;28;20041;-75
2024/01/03 07:59:24;;;;;;;7.10;1.27;;;;;;;7.43;100.00;98333.03;5041975;28;20033;-75
2024/01/03 08:01:50;;;;;;;5.78;1.00;;;;;;;7.48;100.00;98321.47;5013180;28;20090;-75
2024/01/03 08:04:19;;;;;;;11.25;1.38;;;;;;;7.51;100.00;98326.94;5023993;28;20052;-76
2024/01/03 08:06:44;;;;;;;9.02;1.77;;;;;;;7.60;100.00;98314.47;5040873;28;20024;-76
2024/01/03 08:09:10;;;;;;;8.85;1.80;;;;;;;7.72;100.00;98313.84;5041159;28;20460;-75
2024/01/03 08:11:36;;;;;;;5.95;1.20;;;;;;;7.77;100.00;98332.38;5028489;28;20039;-75
2024/01/03 08:14:02;;;;;;;9.10;1.60;;;;;;;7.79;100.00;98321.41;5010860;28;20056;-76
2024/01/03 08:16:28;;;;;;;7.55;1.45;;;;;;;7.77;100.00;98318.25;5043583;28;20029;-76
2024/01/03 08:18:54;;;;;;;10.40;1.40;;;;;;;7.78;100.00;98322.50;5025658;28;20025;-75
2024/01/03 08:21:20;;;;;;;6.93;1.23;;;;;;;7.75;100.00;98329.22;5024810;28;20025;-76
2024/01/03 08:23:45;;;;;;;7.13;1.20;;;;;;;7.78;100.00;98333.94;5024997;28;20036;-76
2024/01/03 08:26:12;;;;;;;9.75;2.50;;;;;;;7.87;100.00;98345.41;5024461;28;20037;-76
2024/01/03 08:28:40;;;;;;;7.00;1.20;;;;;;;7.90;100.00;98328.00;5032690;28;20033;-77
2024/01/03 08:31:07;;;;;;;6.65;1.85;;;;;;;7.91;100.00;98325.03;5037057;28;20088;-78
2024/01/03 08:33:34;;;;;;;11.02;1.90;;;;;;;7.91;100.00;98333.03;5010910;28;20033;-77
2024/01/03 08:36:01;;;;;;;8.98;1.35;;;;;;;7.93;100.00;98348.72;5018140;28;20741;-77
2024/01/03 08:38:27;;;;;;;11.10;1.85;;;;;;;7.87;100.00;98342.75;5037233;28;20030;-76
2024/01/03 08:40:52;;;;;;;9.75;1.50;;;;;;;7.88;100.00;98354.97;5018389;28;20433;-76
2024/01/03 08:43:18;;;;;;;11.55;1.50;;;;;;;7.89;100.00;98350.44;5043809;28;20041;-77
2024/01/03 08:45:43;;;;;;;8.05;1.25;;;;;;;7.93;100.00;98352.19;5009254;28;20111;-77
2024/01/03 08:48:09;;;;;;;7.68;1.63;;;;;;;7.94;100.00;98353.75;5021690;28;20041;-76
2024/01/03 08:50:35;;;;;;;6.18;1.05;;;;;;;7.94;100.00;98347.63;5025545;28;20029;-76
2024/01/03 08:53:01;;;;;;;9.43;1.63;;;;;;;7.98;100.00;98359.22;5024321;28;20041;-77
2024/01/03 08:55:26;;;;;;;9.13;1.63;;;;;;;7.99;100.00;98360.00;5025748;28;20755;-78
2024/01/03 08:57:56;;;;;;;7.10;1.27;;;;;;;8.06;100.00;98365.66;4989183;28;20029;-78
2024/01/03 09:00:24;;;;;;;7.47;1.20;;;;;;;8.08;100.00;98374.94;5009439;28;20052;-78
2024/01/03 09:02:50;;;;;;;5.22;1.50;;;;;;;8.12;100.00;98357.22;5011784;28;20490;-78
2024/01/03 09:05:18;;;;;;;7.80;1.98;;;;;;;8.13;100.00;98366.03;5024725;28;20821;-78
2024/01/03 09:07:45;;;;;;;6.93;1.30;;;;;;;8.19;100.00;98383.41;5026897;28;20490;-75
2024/01/03 09:10:11;;;;;;;5.50;1.40;;;;;;;8.28;100.00;98378.91;5024304;28;20576;-77
2024/01/03 09:12:36;;;;;;;9.77;1.20;;;;;;;8.28;100.00;98389.56;5030257;28;20124;-77
2024/01/03 09:15:03;;;;;;;7.50;1.55;;;;;;;8.25;100.00;98392.06;5042527;28;20115;-77
2024/01/03 09:17:30;;;;;;;8.20;1.40;;;;;;;8.26;100.00;98386.41;5034643;28;20387;-76
2024/01/03 09:19:55;;;;;;;6.65;1.20;;;;;;;8.27;100.00;98398.66;5026255;28;20062;-78
2024/01/03 09:22:21;;;;;;;5.03;1.30;;;;;;;8.29;100.00;98395.69;5025336;28;20043;-76
2024/01/03 09:24:47;;;;;;;6.45;1.20;;;;;;;8.25;100.00;98400.84;5026895;28;20031;-77
2024/01/03 09:27:13;;;;;;;7.10;1.50;;;;;;;8.26;100.00;98397.06;5029463;28;20125;-77
2024/01/03 09:29:40;;;;;;;9.32;1.33;;;;;;;8.27;100.00;98395.22;4999894;28;20044;-77
2024/01/03 09:32:07;;;;;;;6.05;1.58;;;;;;;8.24;100.00;98393.94;5043297;28;20029;-77
2024/01/03 09:34:39;;;;;;;7.25;1.27;;;;;;;8.25;100.00;98414.19;5020945;28;20032;-78
2024/01/03 09:37:06;;;;;;;6.88;1.38;;;;;;;8.23;100.00;98400.38;5030969;28;20111;-78
2024/01/03 09:39:32;;;;;;;7.68;1.23;;;;;;;8.25;100.00;98418.72;5042003;28;20051;-77
2024/01/03 09:41:59;;;;;;;7.35;1.20;;;;;;;8.23;100.00;98408.38;5048237;28;20036;-78
2024/01/03 09:44:26;;;;;;;8.77;1.38;;;;;;;8.21;100.00;98421.25;5031644;28;20031;-80
2024/01/03 09:46:52;;;;;;;11.25;1.40;;;;;;;8.19;100.00;98416.19;5026168;28;20056;-79
2024/01/03 09:49:18;;;;;;;6.68;1.50;;;;;;;8.25;100.00;98419.50;5041807;28;20750;-78
2024/01/03 09:51:46;;;;;;;10.02;1.45;;;;;;;8.25;100.00;98416.84;5011200;28;20029;-77
2024/01/03 09:54:12;;;;;;;9.27;2.00;;;;;;;8.29;100.00;98407.13;5008612;28;20044;-77
2024/01/03 09:56:39;;;;;;;10.98;1.67;;;;;;;8.37;100.00;98421.59;5010154;28;20037;-77
2024/01/03 09:59:04;;;;;;;8.13;1.75;;;;;;;8.43;100.00;98413.16;5020626;28;20034;-78
2024/01/03 10:01:30;;;;;;;11.70;1.85;;;;;;;8.52;100.00;98428.38;5030051;28;20032;-77
2024/01/03 10:03:55;;;;;;;10.93;1.90;;;;;;;8.58;100.00;98424.47;5021733;28;20033;-78
2024/01/03 10:06:21;;;;;;;6.32;1.50;;;;;;;8.65;100.00;98414.09;5021960;28;20046;-76
2024/01/03 10:08:58;;;;;;;8.65;1.48;;;;;;;8.71;100.00;98413.63;5032092;28;20060;-78
2024/01/03 10:11:24;;;;;;;8.65;1.92;;;;;;;8.74;100.00;98417.59;5025383;28;20740;-76
2024/01/03 10:13:52;;;;;;;12.70;1.73;;;;;;;8.73;100.00;98416.00;5032288;28;20564;-77
2024/01/03 10:16:25;;;;;;;8.02;1.83;;;;;;;8.74;100.00;98425.59;5024638;28;20136;-77
2024/01/03 10:19:11;;;;;;;11.80;1.60;;;;;;;8.77;100.00;98424.16;5041801;28;20033;-77
2024/01/03 10:21:53;;;;;;;9.48;1.55;;;;;;;8.78;100.00;98423.06;5029809;28;20752;-78
2024/01/03 10:24:21;;;;;;;11.63;1.92;;;;;;;8.78;100.00;98423.06;5039015;28;20040;-78
2024/01/03 10:26:48;;;;;;;9.60;1.45;;;;;;;8.80;100.00;98420.84;5033454;28;20067;-78
2024/01/03 10:29:20;;;;;;;10.43;1.60;;;;;;;8.82;100.00;98430.13;5048351;28;20056;-76
2024/01/03 10:31:47;;;;;;;9.60;1.50;;;;;;;8.79;100.00;98422.75;5031098;28;20505;-77
2024/01/03 10:34:17;;;;;;;10.48;1.75;;;;;;;8.79;100.00;98428.09;5016031;28;20060;-75
2024/01/03 10:36:43;;;;;;;11.85;1.52;;;;;;;8.85;100.00;98424.16;5051764;28;20032;-77
2024/01/03 10:39:17;;;;;;;7.00;1.40;;;;;;;8.92;100.00;98413.78;5029748;28;20086;-76
2024/01/03 10:41:44;;;;;;;8.65;1.35;;;;;;;8.96;100.00;98409.41;5033107;28;20037;-77
2024/01/03 10:44:11;;;;;;;7.88;1.63;;;;;;;8.98;100.00;98422.44;5013114;28;20110;-77
2024/01/03 10:46:37;;;;;;;5.80;1.40;;;;;;;9.01;100.00;98438.63;5016055;28;20038;-76
2024/01/03 10:49:03;;;;;;;7.65;1.35;;;;;;;9.01;100.00;98422.59;5030764;28;20401;-77
2024/01/03 10:51:34;;;;;;;7.72;1.30;;;;;;;8.97;100.00;98429.66;5045975;28;20068;-79
2024/01/03 10:54:01;;;;;;;9.07;1.30;;;;;;;8.94;100.00;98432.16;5031566;28;20509;-78
2024/01/03 10:56:34;;;;;;;5.97;1.20;;;;;;;8.92;100.00;98434.38;4997722;28;20048;-79
2024/01/03 10:59:00;;;;;;;;;;;;;;;8.92;100.00;98450.38;5020739;28;20115;-79
2024/01/03 11:01:32;;;;;;;8.93;1.70;;;;;;;8.91;100.00;98443.47;5029680;28;19999;-75
2024/01/03 11:04:24;;;;;;;8.50;1.60;;;;;;;8.91;100.00;98444.25;5013901;28;20563;-75
2024/01/03 11:07:10;;;;;;;8.70;1.20;;;;;;;8.86;100.00;98444.41;5025791;28;20040;-76
2024/01/03 11:09:36;;;;;;;5.70;1.10;;;;;;;8.82;100.00;98440.81;5026388;28;20120;-76
2024/01/03 11:12:10;;;;;;;9.02;1.65;;;;;;;8.84;100.00;98446.63;5012567;28;20040;-75
2024/01/03 11:14:37;;;;;;;7.50;1.60;;;;;;;8.83;100.00;98447.72;5045204;28;20396;-76
2024/01/03 11:17:03;;;;;;;8.35;1.42;;;;;;;8.82;100.00;98450.72;5033854;28;20029;-76
2024/01/03 11:19:31;;;;;;;10.90;1.63;;;;;;;8.81;100.00;98447.25;5055259;28;20040;-77
2024/01/03 11:21:59;;;;;;;8.88;1.67;;;;;;;8.83;100.00;98444.28;4996130;28;20108;-76
2024/01/03 11:24:28;;;;;;;10.10;1.65;;;;;;;8.82;100.00;98446.16;5024964;28;20148;-73
2024/01/03 11:26:53;;;;;;;8.30;1.25;;;;;;;8.82;100.00;98445.38;5035040;28;20044;-76
2024/01/03 11:29:48;;;;;;;10.55;2.35;;;;;;;8.82;100.00;98443.47;5026205;28;20041;-76
2024/01/03 11:32:32;;;;;;;6.97;1.40;;;;;;;8.84;100.00;98443.16;5026371;28;20536;-77